Terminal Aerodrome Forecast
Issued by NWS Goodland, KS

Home | Current Version | Previous Version | Text Only | Print | Product List | Glossary On
Versions: 1 2 3 4 5 6 7 8 9 10 11 12 13 14
000
FTUS43 KGLD 221720
TAFGLD
TAF
KGLD 221720Z 2218/2318 33010KT P6SM FEW050 SCT270
     FM222100 35014G21KT P6SM VCTS BKN080CB
      TEMPO 2223/2301 VRB25G40KT 4SM -TSRA BKN050CB
     FM230500 33012G18KT P6SM SCT050 SCT120=

USA.gov is the U.S. government's official web portal to all federal, state and local government web resources and services.